EH-0002 weather

Al Mahbes Airstrip
Al Mahbes, Western Sahara

Public forecast

Using degrees Celsius for public forecast. Weather courtesy of forecast.io.

Closest aviation weather report (METAR) to Al Mahbes Airstrip

Closest report is Tindouf Airport, 51.3 nm (95.0 km) ENE. Retrieved 2019/11/14 02:00 UTC (37 minutes ago):

DAOF 140200Z 23006KT CAVOK 17/M01 Q1015

Closest aviation forecast (TAF) to Al Mahbes Airstrip

Forecast is more than 12 hours old.

Closest forecast is Tindouf Airport, 51.3 nm (95.0 km) ENE. Retrieved 2017/11/09 18:03 UTC (2 years ago):

TAF DAOF 091700Z 0918/1009 32010KT 9999 SCT040 BKN100 PROB30 TEMPO 0918/0921 FEW033CB